createdAt,value
2023-05-17T00:00:49.105Z,89.03
2023-05-17T00:01:49.108Z,89.54
2023-05-17T00:02:49.190Z,89.48
2023-05-17T00:03:49.111Z,89.38
2023-05-17T00:04:49.151Z,89.69
2023-05-17T00:05:49.238Z,89.69
2023-05-17T00:06:49.102Z,89.59
2023-05-17T00:07:49.112Z,90.40
2023-05-17T00:08:49.099Z,90.09
2023-05-17T00:09:49.102Z,89.89
2023-05-17T00:10:49.104Z,89.73
2023-05-17T00:11:49.110Z,90.20
2023-05-17T00:12:49.097Z,90.03
2023-05-17T00:13:49.099Z,89.79
2023-05-17T00:14:49.113Z,90.24
2023-05-17T00:15:49.102Z,90.40
2023-05-17T00:16:49.095Z,90.55
2023-05-17T00:17:49.168Z,90.75
2023-05-17T00:18:49.175Z,90.95
2023-05-17T00:19:49.212Z,90.91
2023-05-17T00:20:49.095Z,91.22
2023-05-17T00:21:49.202Z,91.46
2023-05-17T00:22:49.092Z,91.05
2023-05-17T00:23:49.089Z,91.05
2023-05-17T00:24:49.099Z,90.95
2023-05-17T00:25:49.089Z,91.87
2023-05-17T00:26:49.091Z,91.56
2023-05-17T00:27:49.101Z,91.05
2023-05-17T00:28:49.088Z,90.85
2023-05-17T00:29:49.097Z,90.85
2023-05-17T00:30:49.090Z,91.05
2023-05-17T00:31:49.096Z,91.81
2023-05-17T00:32:49.144Z,91.71
2023-05-17T00:33:49.091Z,91.50
2023-05-17T00:34:49.123Z,91.71
2023-05-17T00:35:49.092Z,91.61
2023-05-17T00:36:49.077Z,91.40
2023-05-17T00:37:49.185Z,91.61
2023-05-17T00:38:49.077Z,91.81
2023-05-17T00:39:49.085Z,91.40
2023-05-17T00:40:49.090Z,92.11
2023-05-17T00:41:49.092Z,91.40
2023-05-17T00:42:49.097Z,92.32
2023-05-17T00:43:49.095Z,91.81
2023-05-17T00:44:49.090Z,92.22
2023-05-17T00:45:49.078Z,91.81
2023-05-17T00:46:49.074Z,91.26
2023-05-17T00:47:49.245Z,91.46
2023-05-17T00:48:49.102Z,91.46
2023-05-17T00:49:49.074Z,91.56
2023-05-17T00:50:49.075Z,91.46
2023-05-17T00:51:49.075Z,91.66
2023-05-17T00:52:49.093Z,91.56
2023-05-17T00:53:49.175Z,91.87
2023-05-17T00:54:49.077Z,91.97
2023-05-17T00:55:49.075Z,91.91
2023-05-17T00:56:49.066Z,92.27
2023-05-17T00:57:49.064Z,91.77
2023-05-17T00:58:49.075Z,91.91
2023-05-17T00:59:49.072Z,92.07
2023-05-17T01:00:49.066Z,92.72
2023-05-17T01:01:49.064Z,92.52
2023-05-17T01:02:49.190Z,93.33
2023-05-17T01:03:49.185Z,93.33
2023-05-17T01:04:49.127Z,93.64
2023-05-17T01:05:49.076Z,93.44
2023-05-17T01:06:49.059Z,93.85
2023-05-17T01:07:49.056Z,93.33
2023-05-17T01:08:49.064Z,92.63
2023-05-17T01:09:49.174Z,93.54
2023-05-17T01:10:49.052Z,93.24
2023-05-17T01:11:49.063Z,93.54
2023-05-17T01:12:49.073Z,93.64
2023-05-17T01:13:49.057Z,92.83
2023-05-17T01:14:49.057Z,93.85
2023-05-17T01:15:49.061Z,93.85
2023-05-17T01:16:49.051Z,93.89
2023-05-17T01:17:49.070Z,93.79
2023-05-17T01:18:49.352Z,95.37
2023-05-17T01:19:49.178Z,95.21
2023-05-17T01:20:49.048Z,95.12
2023-05-17T01:21:49.049Z,96.23
2023-05-17T01:22:49.045Z,95.62
2023-05-17T01:23:49.073Z,95.93
2023-05-17T01:24:49.041Z,95.83
2023-05-17T01:25:49.134Z,96.03
2023-05-17T01:26:49.040Z,95.83
2023-05-17T01:27:49.045Z,96.14
2023-05-17T01:28:49.040Z,95.62
2023-05-17T01:29:49.038Z,95.98
2023-05-17T01:30:49.050Z,95.78
2023-05-17T01:31:49.045Z,95.89
2023-05-17T01:32:49.103Z,95.98
2023-05-17T01:33:49.126Z,95.98
2023-05-17T01:34:49.036Z,96.70
2023-05-17T01:35:49.044Z,95.98
2023-05-17T01:36:49.031Z,97.31
2023-05-17T01:37:49.036Z,96.75
2023-05-17T01:38:49.038Z,96.50
2023-05-17T01:39:49.032Z,96.80
2023-05-17T01:40:49.030Z,98.07
2023-05-17T01:41:49.217Z,98.38
2023-05-17T01:42:49.027Z,98.58
2023-05-17T01:43:49.035Z,98.89
2023-05-17T01:44:49.028Z,99.65
2023-05-17T01:45:49.028Z,99.91
2023-05-17T01:46:49.022Z,99.54
2023-05-17T01:47:49.080Z,99.99
2023-05-17T01:48:49.054Z,98.99
2023-05-17T01:49:49.022Z,98.89
2023-05-17T01:50:49.030Z,99.80
2023-05-17T01:51:49.034Z,99.91
2023-05-17T01:52:49.017Z,99.60
2023-05-17T01:53:49.019Z,99.99
2023-05-17T01:54:49.025Z,99.91
2023-05-17T01:55:49.028Z,99.99
2023-05-17T01:56:49.036Z,99.99
2023-05-17T01:57:49.158Z,99.99
2023-05-17T01:58:49.033Z,99.95
2023-05-17T01:59:49.017Z,99.99
2023-05-17T02:00:49.009Z,99.99
2023-05-17T02:01:49.016Z,99.99
2023-05-17T02:02:49.044Z,99.99
2023-05-17T02:03:49.064Z,99.99
2023-05-17T02:04:49.129Z,99.99
2023-05-17T02:05:49.019Z,99.99
2023-05-17T02:06:49.004Z,99.99
2023-05-17T02:07:49.011Z,99.99
2023-05-17T02:08:49.021Z,99.99
2023-05-17T02:09:49.009Z,99.99
2023-05-17T02:10:49.000Z,99.99
2023-05-17T02:11:49.003Z,99.99
2023-05-17T02:12:49.003Z,99.99
2023-05-17T02:13:49.043Z,99.99
2023-05-17T02:14:49.077Z,99.99
2023-05-17T02:15:49.007Z,99.99
2023-05-17T02:16:49.001Z,99.99
2023-05-17T02:17:49.153Z,99.99
2023-05-17T02:18:49.092Z,99.99
2023-05-17T02:19:49.009Z,99.99
2023-05-17T02:20:48.997Z,99.99
2023-05-17T02:21:49.014Z,99.99
2023-05-17T02:22:49.000Z,99.99
2023-05-17T02:23:48.993Z,99.99
2023-05-17T02:24:49.048Z,99.99
2023-05-17T02:25:49.002Z,99.99
2023-05-17T02:26:48.990Z,99.99
2023-05-17T02:27:48.996Z,99.99
2023-05-17T02:28:48.988Z,99.99
2023-05-17T02:29:49.108Z,99.99
2023-05-17T02:30:48.988Z,99.99
2023-05-17T02:31:48.995Z,99.99
2023-05-17T02:32:49.047Z,99.99
2023-05-17T02:33:49.014Z,99.99
2023-05-17T02:34:48.988Z,99.99
2023-05-17T02:35:48.987Z,99.99
2023-05-17T02:36:48.979Z,99.99
2023-05-17T02:37:48.986Z,99.99
2023-05-17T02:38:48.982Z,99.99
2023-05-17T02:39:48.988Z,99.99
2023-05-17T02:40:48.979Z,99.99
2023-05-17T02:41:48.983Z,99.99
2023-05-17T02:42:48.976Z,99.99
2023-05-17T02:43:48.976Z,99.99
2023-05-17T02:44:48.978Z,99.99
2023-05-17T02:45:49.078Z,99.99
2023-05-17T02:46:49.029Z,99.99
2023-05-17T02:47:49.038Z,99.99
2023-05-17T02:48:48.970Z,99.99
2023-05-17T02:49:48.970Z,99.99
2023-05-17T02:50:48.970Z,99.99
2023-05-17T02:51:48.969Z,99.99
2023-05-17T02:52:48.981Z,99.99
2023-05-17T02:53:48.961Z,99.99
2023-05-17T02:54:48.975Z,99.99
2023-05-17T02:55:48.968Z,99.99
2023-05-17T02:56:48.964Z,99.99
2023-05-17T02:57:48.969Z,99.99
2023-05-17T02:58:48.961Z,99.99
2023-05-17T02:59:48.957Z,99.99
2023-05-17T03:00:48.961Z,99.99
2023-05-17T03:01:49.054Z,99.99
2023-05-17T03:02:49.083Z,99.99
2023-05-17T03:03:49.301Z,99.99
2023-05-17T03:04:49.037Z,99.99
2023-05-17T03:05:48.950Z,99.97
2023-05-17T03:06:48.961Z,99.99
2023-05-17T03:07:48.949Z,99.99
2023-05-17T03:08:48.951Z,99.99
2023-05-17T03:09:48.963Z,99.99
2023-05-17T03:10:48.950Z,99.99
2023-05-17T03:11:48.951Z,99.99
2023-05-17T03:12:48.948Z,99.99
2023-05-17T03:13:48.949Z,99.99
2023-05-17T03:14:48.955Z,99.99
2023-05-17T03:15:48.950Z,99.99
2023-05-17T03:16:48.948Z,99.99
2023-05-17T03:17:49.138Z,99.99
2023-05-17T03:18:49.124Z,99.99
2023-05-17T03:19:49.047Z,99.99
2023-05-17T03:20:48.937Z,99.99
2023-05-17T03:21:48.936Z,99.99
2023-05-17T03:22:48.948Z,99.99
2023-05-17T03:23:48.937Z,99.99
2023-05-17T03:24:48.942Z,99.99
2023-05-17T03:25:48.948Z,99.99
2023-05-17T03:26:48.951Z,99.99
2023-05-17T03:27:49.023Z,99.99
2023-05-17T03:28:48.933Z,99.99
2023-05-17T03:29:48.933Z,99.99
2023-05-17T03:30:48.962Z,99.99
2023-05-17T03:31:48.930Z,99.99
2023-05-17T03:32:49.020Z,99.99
2023-05-17T03:33:49.196Z,99.99
2023-05-17T03:34:48.927Z,99.99
2023-05-17T03:35:48.925Z,99.99
2023-05-17T03:36:48.947Z,99.99
2023-05-17T03:37:48.940Z,99.99
2023-05-17T03:38:48.921Z,99.99
2023-05-17T03:39:48.921Z,99.99
2023-05-17T03:40:48.922Z,99.99
2023-05-17T03:41:48.933Z,99.99
2023-05-17T03:42:48.920Z,99.99
2023-05-17T03:43:48.918Z,99.99
2023-05-17T03:44:48.930Z,99.99
2023-05-17T03:45:48.916Z,99.99
2023-05-17T03:46:48.912Z,99.99
2023-05-17T03:47:48.949Z,99.99
2023-05-17T03:48:48.999Z,99.99
2023-05-17T03:49:49.261Z,99.99
2023-05-17T03:50:48.922Z,99.99
2023-05-17T03:51:48.909Z,99.99
2023-05-17T03:52:48.948Z,99.99
2023-05-17T03:53:48.907Z,99.99
2023-05-17T03:54:48.922Z,99.99
2023-05-17T03:55:48.904Z,99.99
2023-05-17T03:56:48.915Z,99.99
2023-05-17T03:57:48.908Z,99.99
2023-05-17T03:58:48.922Z,99.99
2023-05-17T03:59:48.899Z,99.99
2023-05-17T04:00:48.908Z,99.99
2023-05-17T04:01:48.903Z,99.99
2023-05-17T04:02:48.980Z,99.99
2023-05-17T04:03:48.917Z,99.99
2023-05-17T04:04:48.973Z,99.99
2023-05-17T04:05:49.066Z,99.99
2023-05-17T04:06:48.908Z,99.99
2023-05-17T04:07:48.936Z,99.99
2023-05-17T04:08:48.921Z,99.99
2023-05-17T04:09:48.919Z,99.99
2023-05-17T04:10:48.904Z,99.99
2023-05-17T04:11:48.921Z,99.99
2023-05-17T04:12:48.895Z,99.99
2023-05-17T04:13:48.894Z,99.99
2023-05-17T04:14:48.899Z,99.99
2023-05-17T04:15:48.900Z,99.99
2023-05-17T04:16:48.908Z,99.99
2023-05-17T04:17:48.960Z,99.99
2023-05-17T04:18:48.962Z,99.99
2023-05-17T04:19:48.933Z,99.99
2023-05-17T04:20:48.899Z,99.99
2023-05-17T04:21:48.986Z,99.99
2023-05-17T04:22:48.896Z,99.99
2023-05-17T04:23:48.894Z,99.99
2023-05-17T04:24:48.899Z,99.99
2023-05-17T04:25:48.883Z,99.99
2023-05-17T04:26:48.894Z,99.99
2023-05-17T04:27:48.886Z,99.99
2023-05-17T04:28:48.900Z,99.99
2023-05-17T04:29:48.899Z,99.99
2023-05-17T04:30:48.917Z,99.99
2023-05-17T04:31:48.976Z,99.99
2023-05-17T04:32:48.914Z,99.99
2023-05-17T04:33:48.995Z,99.99
2023-05-17T04:34:48.880Z,99.99
2023-05-17T04:35:48.891Z,99.99
2023-05-17T04:36:48.883Z,99.99
2023-05-17T04:37:49.030Z,99.99
2023-05-17T04:38:48.883Z,99.99
2023-05-17T04:39:48.877Z,99.99
2023-05-17T04:40:48.877Z,99.99
2023-05-17T04:41:49.011Z,99.99
2023-05-17T04:42:48.875Z,99.99
2023-05-17T04:43:48.881Z,99.99
2023-05-17T04:44:48.892Z,99.99
2023-05-17T04:45:48.870Z,99.99
2023-05-17T04:46:48.896Z,99.99
2023-05-17T04:47:48.929Z,99.99
2023-05-17T04:48:48.957Z,99.99
2023-05-17T04:49:48.863Z,99.99
2023-05-17T04:50:48.873Z,99.99
2023-05-17T04:51:48.869Z,99.99
2023-05-17T04:52:48.870Z,99.99
2023-05-17T04:53:49.018Z,99.99
2023-05-17T04:54:48.869Z,99.99
2023-05-17T04:55:48.866Z,99.99
2023-05-17T04:56:48.874Z,99.99
2023-05-17T04:57:48.872Z,99.99
2023-05-17T04:58:50.468Z,99.99
2023-05-17T04:59:48.866Z,99.99
2023-05-17T05:00:49.010Z,99.99
2023-05-17T05:01:48.858Z,99.99
2023-05-17T05:02:48.893Z,99.99
2023-05-17T05:03:48.875Z,99.99
2023-05-17T05:04:48.884Z,99.99
2023-05-17T05:05:48.858Z,99.99
2023-05-17T05:06:48.865Z,99.99
2023-05-17T05:07:48.851Z,99.99
2023-05-17T05:08:48.859Z,99.99
2023-05-17T05:09:48.944Z,99.99
2023-05-17T05:10:48.856Z,99.99
2023-05-17T05:11:48.855Z,99.99
2023-05-17T05:12:48.860Z,99.99
2023-05-17T05:13:48.853Z,99.99
2023-05-17T05:14:48.851Z,99.99
2023-05-17T05:15:48.845Z,99.99
2023-05-17T05:16:48.860Z,99.73
2023-05-17T05:17:48.963Z,99.99
2023-05-17T05:18:49.016Z,99.99
2023-05-17T05:19:48.882Z,99.99
2023-05-17T05:20:48.858Z,99.99
2023-05-17T05:21:48.842Z,99.99
2023-05-17T05:22:48.848Z,99.73
2023-05-17T05:23:48.848Z,99.73
2023-05-17T05:24:48.841Z,99.42
2023-05-17T05:25:48.945Z,99.63
2023-05-17T05:26:48.842Z,99.58
2023-05-17T05:27:48.840Z,99.68
2023-05-17T05:28:48.838Z,99.48
2023-05-17T05:29:48.837Z,99.68
2023-05-17T05:30:48.840Z,99.73
2023-05-17T05:31:48.833Z,98.81
2023-05-17T05:32:48.905Z,98.86
2023-05-17T05:33:48.903Z,99.52
2023-05-17T05:34:48.924Z,99.27
2023-05-17T05:35:48.887Z,98.77
2023-05-17T05:36:48.848Z,98.56
2023-05-17T05:37:48.869Z,98.26
2023-05-17T05:38:48.849Z,98.26
2023-05-17T05:39:48.832Z,98.41
2023-05-17T05:40:48.832Z,98.52
2023-05-17T05:41:48.990Z,98.41
2023-05-17T05:42:48.841Z,98.41
2023-05-17T05:43:48.831Z,98.01
2023-05-17T05:44:48.830Z,98.16
2023-05-17T05:45:48.830Z,98.01
2023-05-17T05:46:48.831Z,97.91
2023-05-17T05:47:48.888Z,98.01
2023-05-17T05:48:48.848Z,97.66
2023-05-17T05:49:48.826Z,97.15
2023-05-17T05:50:48.829Z,97.15
2023-05-17T05:51:48.832Z,97.31
2023-05-17T05:52:48.837Z,97.00
2023-05-17T05:53:48.820Z,96.70
2023-05-17T05:54:48.824Z,96.35
2023-05-17T05:55:48.822Z,96.66
2023-05-17T05:56:48.826Z,95.94
2023-05-17T05:57:48.916Z,95.34
2023-05-17T05:58:48.829Z,95.43
2023-05-17T05:59:48.814Z,94.12
2023-05-17T06:00:48.830Z,93.45
2023-05-17T06:01:48.827Z,93.51
2023-05-17T06:02:48.864Z,92.90
2023-05-17T06:03:48.854Z,92.49
2023-05-17T06:04:48.827Z,92.29
2023-05-17T06:05:48.975Z,93.00
2023-05-17T06:06:48.967Z,92.70
2023-05-17T06:07:48.819Z,92.19
2023-05-17T06:08:48.817Z,92.29
2023-05-17T06:09:48.815Z,92.25
2023-05-17T06:10:48.827Z,92.35
2023-05-17T06:11:48.814Z,92.45
2023-05-17T06:12:48.851Z,91.89
2023-05-17T06:13:49.025Z,92.35
2023-05-17T06:14:48.832Z,92.14
2023-05-17T06:15:48.817Z,92.00
2023-05-17T06:16:48.827Z,92.00
2023-05-17T06:17:48.930Z,90.79
2023-05-17T06:18:51.282Z,90.38
2023-05-17T06:19:48.841Z,90.79
2023-05-17T06:20:48.812Z,90.79
2023-05-17T06:21:48.833Z,89.61
2023-05-17T06:22:48.839Z,89.35
2023-05-17T06:23:48.813Z,89.65
2023-05-17T06:24:48.822Z,89.86
2023-05-17T06:25:48.807Z,90.47
2023-05-17T06:26:48.815Z,90.83
2023-05-17T06:27:48.806Z,90.83
2023-05-17T06:28:48.810Z,90.63
2023-05-17T06:29:49.088Z,89.76
2023-05-17T06:30:48.819Z,89.51
2023-05-17T06:31:48.808Z,89.61
2023-05-17T06:32:48.862Z,89.11
2023-05-17T06:33:48.877Z,89.01
2023-05-17T06:34:48.801Z,89.21
2023-05-17T06:35:56.754Z,89.51
2023-05-17T06:36:48.803Z,89.67
2023-05-17T06:37:48.804Z,88.46
2023-05-17T06:38:48.802Z,88.05
2023-05-17T06:39:55.862Z,87.20
2023-05-17T06:40:48.845Z,87.14
2023-05-17T06:41:48.809Z,87.00
2023-05-17T06:42:48.810Z,86.96
2023-05-17T06:43:48.805Z,88.37
2023-05-17T06:44:48.806Z,88.07
2023-05-17T06:45:48.956Z,87.22
2023-05-17T06:46:48.813Z,87.28
2023-05-17T06:47:48.880Z,86.98
2023-05-17T06:48:51.210Z,86.53
2023-05-17T06:49:48.795Z,86.13
2023-05-17T06:50:48.798Z,85.68
2023-05-17T06:51:48.797Z,86.04
2023-05-17T06:52:48.794Z,85.74
2023-05-17T06:53:48.811Z,85.94
2023-05-17T06:54:48.801Z,85.78
2023-05-17T06:55:48.793Z,86.08
2023-05-17T06:56:48.814Z,84.71
2023-05-17T06:57:48.803Z,85.22
2023-05-17T06:58:48.802Z,84.71
2023-05-17T06:59:48.795Z,84.31
2023-05-17T07:00:48.804Z,84.11
2023-05-17T07:01:48.905Z,84.55
2023-05-17T07:02:48.863Z,84.34
2023-05-17T07:03:48.943Z,84.99
2023-05-17T07:04:48.853Z,84.69
2023-05-17T07:05:48.802Z,83.98
2023-05-17T07:06:48.793Z,84.69
2023-05-17T07:07:48.795Z,84.69
2023-05-17T07:08:48.799Z,85.36
2023-05-17T07:09:48.799Z,85.46
2023-05-17T07:10:48.790Z,84.14
2023-05-17T07:11:48.791Z,83.84
2023-05-17T07:12:48.800Z,84.08
2023-05-17T07:13:48.799Z,83.94
2023-05-17T07:14:48.794Z,84.95
2023-05-17T07:15:48.800Z,84.31
2023-05-17T07:16:48.788Z,83.90
2023-05-17T07:17:49.092Z,84.06
2023-05-17T07:18:48.911Z,83.76
2023-05-17T07:19:48.907Z,83.26
2023-05-17T07:20:48.786Z,83.12
2023-05-17T07:21:48.794Z,83.82
2023-05-17T07:22:48.794Z,82.81
2023-05-17T07:23:48.795Z,82.87
2023-05-17T07:24:48.790Z,80.96
2023-05-17T07:25:48.800Z,82.73
2023-05-17T07:26:49.798Z,82.79
2023-05-17T07:27:48.795Z,81.68
2023-05-17T07:28:48.791Z,81.79
2023-05-17T07:29:48.806Z,81.18
2023-05-17T07:30:48.788Z,81.04
2023-05-17T07:31:48.806Z,80.50
2023-05-17T07:32:48.893Z,81.21
2023-05-17T07:33:48.945Z,80.30
2023-05-17T07:34:48.791Z,80.97
2023-05-17T07:35:48.833Z,80.73
2023-05-17T07:36:48.801Z,80.19
2023-05-17T07:37:48.804Z,78.54
2023-05-17T07:38:48.793Z,78.14
2023-05-17T07:39:48.791Z,78.23
2023-05-17T07:40:48.793Z,78.40
2023-05-17T07:41:48.808Z,78.22
2023-05-17T07:42:48.836Z,75.84
2023-05-17T07:43:48.796Z,75.21
2023-05-17T07:44:48.792Z,73.73
2023-05-17T07:45:48.795Z,74.00
2023-05-17T07:46:48.828Z,72.69
2023-05-17T07:47:48.836Z,73.10
2023-05-17T07:48:48.878Z,71.56
2023-05-17T07:49:48.946Z,73.03
2023-05-17T07:50:48.799Z,73.21
2023-05-17T07:51:48.805Z,73.21
2023-05-17T07:52:48.804Z,73.67
2023-05-17T07:53:48.821Z,72.86
2023-05-17T07:54:48.807Z,71.89
2023-05-17T07:55:48.813Z,70.66
2023-05-17T07:56:48.797Z,69.82
2023-05-17T07:57:48.815Z,67.80
2023-05-17T07:58:48.813Z,67.70
2023-05-17T07:59:48.801Z,66.74
2023-05-17T08:00:48.819Z,66.27
2023-05-17T08:01:48.819Z,64.22
2023-05-17T08:02:48.849Z,64.86
2023-05-17T08:03:48.812Z,63.17
2023-05-17T08:04:48.835Z,62.18
2023-05-17T08:05:48.870Z,63.24
2023-05-17T08:06:48.834Z,63.10
2023-05-17T08:07:48.822Z,61.02
2023-05-17T08:08:48.823Z,60.93
2023-05-17T08:09:48.835Z,61.52
2023-05-17T08:10:48.827Z,62.58
2023-05-17T08:11:48.846Z,60.83
2023-05-17T08:12:48.834Z,61.21
2023-05-17T08:13:48.837Z,60.48
2023-05-17T08:14:48.855Z,59.46
2023-05-17T08:15:50.162Z,58.64
2023-05-17T08:16:48.856Z,56.69
2023-05-17T08:17:48.982Z,58.73
2023-05-17T08:18:48.963Z,58.73
2023-05-17T08:19:48.889Z,58.70
2023-05-17T08:20:48.864Z,57.29
2023-05-17T08:21:48.895Z,57.26
2023-05-17T08:22:48.877Z,57.20
2023-05-17T08:23:48.884Z,57.37
2023-05-17T08:24:48.896Z,56.06
2023-05-17T08:25:48.898Z,55.83
2023-05-17T08:26:48.906Z,56.21
2023-05-17T08:27:48.951Z,56.21
2023-05-17T08:28:48.921Z,56.67
2023-05-17T08:29:48.932Z,56.84
2023-05-17T08:30:48.939Z,55.93
2023-05-17T08:31:48.944Z,55.33
2023-05-17T08:32:49.085Z,54.74
2023-05-17T08:33:49.001Z,55.60
2023-05-17T08:34:48.971Z,54.99
2023-05-17T08:35:48.975Z,55.95
2023-05-17T08:36:49.059Z,55.53
2023-05-17T08:37:49.224Z,56.45
2023-05-17T08:38:49.005Z,56.22
2023-05-17T08:39:49.044Z,55.24
2023-05-17T08:40:49.025Z,55.60
2023-05-17T08:41:49.046Z,55.51
2023-05-17T08:42:49.050Z,54.91
2023-05-17T08:43:49.084Z,53.54
2023-05-17T08:44:49.075Z,54.69
2023-05-17T08:45:49.087Z,55.01
2023-05-17T08:46:49.095Z,54.43
2023-05-17T08:47:49.178Z,54.84
2023-05-17T08:48:49.197Z,55.01
2023-05-17T08:49:49.135Z,54.33
2023-05-17T08:50:49.152Z,55.68
2023-05-17T08:51:49.166Z,54.47
2023-05-17T08:52:49.203Z,53.81
2023-05-17T08:53:49.235Z,53.24
2023-05-17T08:54:49.196Z,54.99
2023-05-17T08:55:49.214Z,53.44
2023-05-17T08:56:49.230Z,55.43
2023-05-17T08:57:49.248Z,55.04
2023-05-17T08:58:56.606Z,55.04
2023-05-17T08:59:49.272Z,54.38
2023-05-17T09:00:49.288Z,53.78
2023-05-17T09:01:49.297Z,54.55
2023-05-17T09:02:49.395Z,56.20
2023-05-17T09:03:49.358Z,54.49
2023-05-17T09:04:49.447Z,54.66
2023-05-17T09:05:49.389Z,53.19
2023-05-17T09:06:49.372Z,53.09
2023-05-17T09:07:49.395Z,52.92
2023-05-17T09:08:49.405Z,52.99
2023-05-17T09:09:49.448Z,53.75
2023-05-17T09:10:49.447Z,53.16
2023-05-17T09:11:49.452Z,53.73
2023-05-17T09:12:49.474Z,52.82
2023-05-17T09:13:49.506Z,51.74
2023-05-17T09:14:49.513Z,52.03
2023-05-17T09:15:49.522Z,53.09
2023-05-17T09:16:49.530Z,51.42
2023-05-17T09:17:49.688Z,52.80
2023-05-17T09:18:49.651Z,51.20
2023-05-17T09:19:49.647Z,50.20
2023-05-17T09:20:49.602Z,49.11
2023-05-17T09:21:49.625Z,50.76
2023-05-17T09:22:49.635Z,51.64
2023-05-17T09:24:01.680Z,50.71
2023-05-17T09:24:49.672Z,51.59
2023-05-17T09:25:49.740Z,49.73
2023-05-17T09:26:49.719Z,50.24
2023-05-17T09:27:49.734Z,50.49
2023-05-17T09:28:49.753Z,49.95
2023-05-17T09:29:49.781Z,49.04
2023-05-17T09:30:50.196Z,48.38
2023-05-17T09:31:49.812Z,49.26
2023-05-17T09:33:49.939Z,50.85
2023-05-17T09:34:49.893Z,48.48
2023-05-17T09:35:49.886Z,48.60
2023-05-17T09:36:49.906Z,49.11
2023-05-17T09:37:49.929Z,47.99
2023-05-17T09:38:49.943Z,49.82
2023-05-17T09:39:49.966Z,50.44
2023-05-17T09:40:49.980Z,49.63
2023-05-17T09:41:50.020Z,49.07
2023-05-17T09:42:50.028Z,46.50
2023-05-17T09:43:50.048Z,47.21
2023-05-17T09:44:50.064Z,46.75
2023-05-17T09:45:50.081Z,47.99
2023-05-17T09:46:50.098Z,47.43
2023-05-17T09:47:50.284Z,47.53
2023-05-17T09:48:50.336Z,47.70
2023-05-17T09:49:50.185Z,46.26
2023-05-17T09:50:50.186Z,45.69
2023-05-17T09:51:50.210Z,47.45
2023-05-17T09:52:50.223Z,48.31
2023-05-17T09:53:50.262Z,45.84
2023-05-17T09:54:50.270Z,45.47
2023-05-17T09:55:50.307Z,45.42
2023-05-17T09:56:50.319Z,47.45
2023-05-17T09:57:50.386Z,47.38
2023-05-17T09:58:50.361Z,47.07
2023-05-17T09:59:50.383Z,46.09
2023-05-17T10:00:50.413Z,46.78
2023-05-17T10:01:50.423Z,45.84
2023-05-17T10:02:50.528Z,47.53
2023-05-17T10:03:50.480Z,46.08
2023-05-17T10:04:50.543Z,46.79
2023-05-17T10:05:50.514Z,49.19
2023-05-17T10:06:52.446Z,46.80
2023-05-17T10:07:50.555Z,46.21
2023-05-17T10:08:50.581Z,46.63
2023-05-17T10:09:50.618Z,45.56
2023-05-17T10:10:50.624Z,47.53
2023-05-17T10:11:50.654Z,45.12
2023-05-17T10:12:50.689Z,45.31
2023-05-17T10:13:50.775Z,46.66
2023-05-17T10:14:50.742Z,46.88
2023-05-17T10:15:50.741Z,43.90
2023-05-17T10:16:50.765Z,43.85
2023-05-17T10:17:50.800Z,47.53
2023-05-17T10:18:50.878Z,46.97
2023-05-17T10:19:50.959Z,46.80
2023-05-17T10:20:50.858Z,46.16
2023-05-17T10:21:50.920Z,46.18
2023-05-17T10:22:50.918Z,46.33
2023-05-17T10:23:50.928Z,48.43
2023-05-17T10:24:50.958Z,45.32
2023-05-17T10:25:50.978Z,46.13
2023-05-17T10:26:51.012Z,48.85
2023-05-17T10:27:51.024Z,46.20
2023-05-17T10:28:51.049Z,46.40
2023-05-17T10:29:51.115Z,46.47
2023-05-17T10:30:51.092Z,47.04
2023-05-17T10:31:51.327Z,47.43
2023-05-17T10:32:51.231Z,48.36
2023-05-17T10:33:51.214Z,46.19
2023-05-17T10:35:01.433Z,44.53
2023-05-17T10:35:51.209Z,45.43
2023-05-17T10:36:51.233Z,45.72
2023-05-17T10:37:51.265Z,46.82
2023-05-17T10:38:51.282Z,47.02
2023-05-17T10:39:51.305Z,45.53
2023-05-17T10:40:51.331Z,45.61
2023-05-17T10:41:52.800Z,45.36
2023-05-17T10:42:51.372Z,45.10
2023-05-17T10:43:51.399Z,45.39
2023-05-17T10:44:51.418Z,47.23
2023-05-17T10:45:51.475Z,47.01
2023-05-17T10:46:51.491Z,46.08
2023-05-17T10:47:51.554Z,44.32
2023-05-17T10:48:51.575Z,44.48
2023-05-17T10:49:51.564Z,45.95
2023-05-17T10:51:01.204Z,46.34
2023-05-17T10:51:51.595Z,48.09
2023-05-17T10:52:51.597Z,47.92
2023-05-17T10:53:51.620Z,47.02
2023-05-17T10:54:51.642Z,48.07
2023-05-17T10:55:51.664Z,46.89
2023-05-17T10:56:51.686Z,46.31
2023-05-17T10:57:51.707Z,46.16
2023-05-17T10:58:51.721Z,44.40
2023-05-17T10:59:51.749Z,44.62
2023-05-17T11:00:53.265Z,47.16
2023-05-17T11:01:51.975Z,44.91
2023-05-17T11:02:51.844Z,44.81
2023-05-17T11:03:51.825Z,46.47
2023-05-17T11:04:51.847Z,45.18
2023-05-17T11:05:52.417Z,46.99
2023-05-17T11:06:51.988Z,46.09
2023-05-17T11:07:51.905Z,47.05
2023-05-17T11:08:51.914Z,45.32
2023-05-17T11:09:51.935Z,45.22
2023-05-17T11:10:51.962Z,45.61
2023-05-17T11:11:51.972Z,43.76
2023-05-17T11:12:51.986Z,45.17
2023-05-17T11:13:52.027Z,44.95
2023-05-17T11:14:52.022Z,46.92
2023-05-17T11:15:52.053Z,46.44
2023-05-17T11:16:52.114Z,45.73
2023-05-17T11:17:52.193Z,43.90
2023-05-17T11:18:52.308Z,45.17
2023-05-17T11:19:52.192Z,45.75
2023-05-17T11:20:52.410Z,44.70
2023-05-17T11:21:52.154Z,46.07
2023-05-17T11:22:52.156Z,45.41
2023-05-17T11:23:52.169Z,44.04
2023-05-17T11:24:52.189Z,47.07
2023-05-17T11:25:54.157Z,46.62
2023-05-17T11:26:52.226Z,45.82
2023-05-17T11:27:52.242Z,46.11
2023-05-17T11:28:52.250Z,46.14
2023-05-17T11:29:52.273Z,46.04
2023-05-17T11:30:52.271Z,45.90
2023-05-17T11:31:52.284Z,45.05
2023-05-17T11:32:52.409Z,43.29
2023-05-17T11:33:52.375Z,45.51
2023-05-17T11:34:52.338Z,44.97
2023-05-17T11:35:52.342Z,45.54
2023-05-17T11:36:52.389Z,45.32
2023-05-17T11:37:52.390Z,44.51
2023-05-17T11:38:58.329Z,46.62
2023-05-17T11:39:53.475Z,46.14
2023-05-17T11:40:52.424Z,46.70
2023-05-17T11:41:52.452Z,44.38
2023-05-17T11:42:52.446Z,46.92
2023-05-17T11:43:52.477Z,45.65
2023-05-17T11:44:52.474Z,46.33
2023-05-17T11:45:53.714Z,45.72
2023-05-17T11:46:52.507Z,46.01
2023-05-17T11:47:52.632Z,46.48
2023-05-17T11:48:52.584Z,43.30
2023-05-17T11:49:54.325Z,45.39
2023-05-17T11:50:52.558Z,43.96
2023-05-17T11:51:52.577Z,45.55
2023-05-17T11:52:52.582Z,42.74
2023-05-17T11:53:52.588Z,46.41
2023-05-17T11:54:52.606Z,45.92
2023-05-17T11:55:52.648Z,44.48
2023-05-17T11:56:52.633Z,46.14
2023-05-17T11:57:52.639Z,46.36
2023-05-17T11:58:52.698Z,44.10
2023-05-17T11:59:52.674Z,44.73
2023-05-17T12:00:52.730Z,46.98
2023-05-17T12:01:52.707Z,46.62
2023-05-17T12:02:52.829Z,46.13
2023-05-17T12:03:52.724Z,47.47
2023-05-17T12:04:52.835Z,46.42
2023-05-17T12:05:52.850Z,48.28
2023-05-17T12:06:53.343Z,49.24
2023-05-17T12:07:52.794Z,47.18
2023-05-17T12:08:52.798Z,46.13
2023-05-17T12:09:52.822Z,48.33
2023-05-17T12:10:52.795Z,47.64
2023-05-17T12:11:52.808Z,47.27
2023-05-17T12:12:52.822Z,46.30
2023-05-17T12:13:52.839Z,45.43
2023-05-17T12:14:52.860Z,49.26
2023-05-17T12:15:52.856Z,47.99
2023-05-17T12:16:52.875Z,47.13
2023-05-17T12:17:52.993Z,46.51
2023-05-17T12:18:53.040Z,47.25
2023-05-17T12:19:52.994Z,49.01
2023-05-17T12:20:52.918Z,48.40
2023-05-17T12:21:52.988Z,47.03
2023-05-17T12:22:52.943Z,48.62
2023-05-17T12:23:52.963Z,46.75
2023-05-17T12:24:52.988Z,47.61
2023-05-17T12:25:52.963Z,46.85
2023-05-17T12:26:52.984Z,47.09
2023-05-17T12:27:52.989Z,47.91
2023-05-17T12:28:53.036Z,48.45
2023-05-17T12:29:53.002Z,47.07
2023-05-17T12:30:53.029Z,49.90
2023-05-17T12:31:53.048Z,47.91
2023-05-17T12:32:53.234Z,46.81
2023-05-17T12:33:53.207Z,48.55
2023-05-17T12:34:53.083Z,46.91
2023-05-17T12:35:53.073Z,48.28
2023-05-17T12:36:53.080Z,48.40
2023-05-17T12:37:53.150Z,47.69
2023-05-17T12:38:53.104Z,48.21
2023-05-17T12:39:53.116Z,47.59
2023-05-17T12:40:53.145Z,47.00
2023-05-17T12:41:53.131Z,46.63
2023-05-17T12:42:53.143Z,48.16
2023-05-17T12:43:57.195Z,47.00
2023-05-17T12:44:53.156Z,45.80
2023-05-17T12:45:53.173Z,45.51
2023-05-17T12:46:53.185Z,45.30
2023-05-17T12:47:53.245Z,48.43
2023-05-17T12:48:53.262Z,46.26
2023-05-17T12:49:53.210Z,47.22
2023-05-17T12:50:53.227Z,47.00
2023-05-17T12:51:53.222Z,47.59
2023-05-17T12:52:53.240Z,46.95
2023-05-17T12:53:53.258Z,47.23